Time;durP1;ratioP1;P1;durP2;ratioP2;P2;SDS_P1;SDS_P2;PMS_P1;PMS_P2;Temp;Humidity;BMP_temperature;BMP_pressure;BME280_temperature;BME280_humidity;BME280_pressure;Samples;Min_cycle;Max_cycle;Signal;HPM_P1;HPM_P2
2022/04/29 00:01:03;;;;;;;8.77;4.80;;;11.30;96.00;;;10.94;100.00;101543.75;5004537;28;20125;-78
2022/04/29 00:03:31;;;;;;;5.07;4.57;;;11.20;95.80;;;10.80;100.00;101542.09;5003266;28;20041;-78
2022/04/29 00:05:58;;;;;;;7.60;5.05;;;11.20;95.80;;;10.65;100.00;101537.75;4987302;28;20042;-78
2022/04/29 00:08:26;;;;;;;6.45;4.55;;;11.30;95.90;;;10.54;100.00;101544.88;4987047;28;20046;-78
2022/04/29 00:10:53;;;;;;;5.75;4.90;;;11.00;95.90;;;10.46;100.00;101543.13;4987300;28;20081;-78
2022/04/29 00:13:20;;;;;;;6.15;4.65;;;11.00;95.90;;;10.50;100.00;101536.97;4971447;28;20084;-78
2022/04/29 00:15:47;;;;;;;5.20;4.70;;;10.90;96.00;;;10.57;100.00;101539.59;4987830;28;20061;-78
2022/04/29 00:18:14;;;;;;;5.38;4.82;;;10.90;96.50;;;10.58;100.00;101528.16;4987127;28;20101;-78
2022/04/29 00:20:42;;;;;;;7.63;5.28;;;10.90;96.60;;;10.54;100.00;101534.34;4986650;28;20096;-79
2022/04/29 00:23:10;;;;;;;7.88;5.28;;;11.50;97.10;;;10.57;100.00;101536.94;4987640;28;20546;-78
2022/04/29 00:25:37;;;;;;;5.88;5.28;;;10.90;97.00;;;10.56;100.00;101537.84;4971755;28;20050;-79
2022/04/29 00:28:05;;;;;;;5.75;4.95;;;10.80;97.00;;;10.55;100.00;101533.47;4971674;28;20076;-78
2022/04/29 00:30:33;;;;;;;6.68;5.03;;;10.80;96.90;;;10.59;100.00;101528.13;4988967;28;20149;-78
2022/04/29 00:33:01;;;;;;;6.55;5.90;;;10.80;96.60;;;10.64;100.00;101522.84;4992192;28;20053;-78
2022/04/29 00:35:28;;;;;;;6.30;5.22;;;10.80;96.60;;;10.68;100.00;101531.63;4991340;28;20062;-78
2022/04/29 00:37:57;;;;;;;9.02;5.43;;;12.30;96.90;;;10.60;100.00;101524.63;4975024;28;20086;-78
2022/04/29 00:40:28;;;;;;;5.45;4.72;;;10.90;96.70;;;10.63;100.00;101526.38;4974511;28;20465;-78
2022/04/29 00:42:56;;;;;;;6.65;4.90;;;10.80;96.50;;;10.65;100.00;101521.97;4991590;28;20056;-79
2022/04/29 00:45:24;;;;;;;6.97;4.82;;;10.90;96.50;;;10.68;100.00;101514.06;4978168;28;20484;-78
2022/04/29 00:47:53;;;;;;;5.35;4.85;;;10.90;96.50;;;10.79;100.00;101519.28;4978651;28;20114;-76
2022/04/29 00:50:24;;;;;;;6.07;5.38;;;11.60;96.50;;;10.90;100.00;101513.94;4962847;28;20486;-80
2022/04/29 00:52:54;;;;;;;5.72;4.93;;;11.00;96.00;;;10.81;100.00;101511.34;4994643;28;20574;-78
2022/04/29 00:55:22;;;;;;;6.00;5.40;;;12.20;96.40;;;10.90;100.00;101508.66;4995009;28;20125;-79
2022/04/29 00:58:20;;;;;;;6.22;5.63;;;11.00;96.00;;;10.85;100.00;101508.69;4993567;28;20451;-77
2022/04/29 01:00:48;;;;;;;5.20;4.70;;;11.00;95.90;;;10.82;100.00;101508.72;4977955;28;20049;-78
2022/04/29 01:03:15;;;;;;;5.45;4.90;;;11.00;95.70;;;10.87;100.00;101504.28;4973450;28;20051;-78
2022/04/29 01:05:43;;;;;;;7.22;6.47;;;11.00;95.80;;;10.88;100.00;101508.66;4986849;28;20117;-79
2022/04/29 01:08:11;;;;;;;7.82;5.65;;;11.00;95.90;;;10.87;100.00;101512.19;4988188;28;20058;-78
2022/04/29 01:10:38;;;;;;;6.90;5.85;;;11.00;95.80;;;10.90;100.00;101511.31;4986484;28;20046;-78
2022/04/29 01:13:05;;;;;;;5.50;5.00;;;11.00;95.60;;;10.84;100.00;101513.97;4972513;28;20399;-78
2022/04/29 01:15:33;;;;;;;8.00;5.28;;;11.00;95.70;;;10.66;100.00;101515.81;4988932;28;20050;-78
2022/04/29 01:18:06;;;;;;;7.07;5.85;;;11.00;95.40;;;10.49;100.00;101514.16;4988948;28;20049;-78
2022/04/29 01:20:34;;;;;;;7.35;5.10;;;10.90;95.60;;;10.56;100.00;101504.47;4975798;28;20078;-78
2022/04/29 01:23:11;;;;;;;8.80;5.47;;;11.40;95.60;;;10.36;100.00;101512.44;4991530;28;20049;-78
2022/04/29 01:25:40;;;;;;;6.65;5.30;;;11.30;95.90;;;10.30;100.00;101512.47;4975666;28;20042;-78
2022/04/29 01:28:07;;;;;;;6.07;5.07;;;10.70;95.80;;;10.26;100.00;101521.28;4974599;28;20515;-78
2022/04/29 01:30:40;;;;;;;6.55;5.85;;;11.10;96.70;;;10.33;100.00;101515.97;5007036;28;20142;-78
2022/04/29 01:33:09;;;;;;;5.80;5.20;;;10.80;97.20;;;10.39;100.00;101515.09;4991324;28;20162;-78
2022/04/29 01:35:36;;;;;;;6.25;5.65;;;10.60;96.70;;;10.25;100.00;101528.28;4975347;28;20848;-78
2022/04/29 01:38:03;;;;;;;8.07;5.63;;;10.60;96.80;;;10.18;100.00;101521.31;4990991;28;20133;-78
2022/04/29 01:40:30;;;;;;;6.45;5.35;;;11.10;96.70;;;10.01;100.00;101513.47;5007040;28;20500;-78
2022/04/29 01:43:04;;;;;;;5.70;5.07;;;10.50;96.40;;;9.97;100.00;101514.38;4991677;28;20498;-78
2022/04/29 01:45:32;;;;;;;7.65;5.93;;;11.10;96.50;;;9.89;100.00;101509.13;4974985;28;20153;-78
2022/04/29 01:48:31;;;;;;;6.38;5.78;;;10.50;96.30;;;9.77;100.00;101510.91;4975265;28;20529;-79
2022/04/29 01:51:17;;;;;;;6.00;5.40;;;10.20;96.40;;;9.78;100.00;101503.91;4990937;28;20061;-78
2022/04/29 01:53:45;;;;;;;7.45;5.78;;;10.10;96.70;;;9.61;100.00;101511.81;4991462;28;20097;-80
2022/04/29 01:56:12;;;;;;;6.15;5.55;;;10.10;96.80;;;9.60;100.00;101513.59;4992159;28;20096;-78
2022/04/29 01:58:39;;;;;;;5.43;4.93;;;10.00;97.10;;;9.49;100.00;101508.31;4990087;28;20054;-78
2022/04/29 02:01:07;;;;;;;5.65;5.10;;;9.90;96.80;;;9.45;100.00;101508.34;4990807;28;20058;-78
2022/04/29 02:03:34;;;;;;;7.15;5.85;;;10.80;97.10;;;9.29;100.00;101510.09;4991650;28;20042;-78
2022/04/29 02:06:01;;;;;;;6.50;5.78;;;10.00;97.00;;;9.32;100.00;101510.97;4991588;28;20046;-78
2022/04/29 02:08:32;;;;;;;7.13;5.85;;;9.70;97.30;;;9.29;100.00;101520.59;4975094;28;20050;-78
2022/04/29 02:11:00;;;;;;;5.95;5.38;;;10.50;97.90;;;9.19;100.00;101509.22;4974689;28;20051;-78
2022/04/29 02:13:29;;;;;;;6.57;5.97;;;9.70;97.30;;;8.93;100.00;101495.22;4990945;28;20519;-78
2022/04/29 02:16:15;;;;;;;6.82;5.70;;;9.60;97.30;;;8.98;100.00;101495.22;4977317;28;20078;-78
2022/04/29 02:18:46;;;;;;;5.70;5.20;;;9.60;97.50;;;9.07;100.00;101492.59;4975540;28;20042;-78
2022/04/29 02:21:13;;;;;;;7.20;6.50;;;9.40;97.60;;;9.15;100.00;101494.34;5007863;28;20071;-78
2022/04/29 02:23:43;;;;;;;6.10;5.53;;;9.40;98.20;;;9.10;100.00;101499.59;5007277;28;20547;-78
2022/04/29 02:26:10;;;;;;;7.10;6.40;;;9.40;98.20;;;9.06;100.00;101496.09;4991922;28;20466;-78
2022/04/29 02:28:40;;;;;;;8.45;6.90;;;9.40;98.30;;;9.03;100.00;101489.94;5007876;28;20058;-78
2022/04/29 02:31:07;;;;;;;10.93;6.65;;;9.40;98.30;;;9.02;100.00;101490.81;4990643;28;20137;-78
2022/04/29 02:33:34;;;;;;;6.57;5.80;;;9.40;98.00;;;8.92;100.00;101497.81;4975370;28;20253;-78
2022/04/29 02:36:05;;;;;;;7.18;5.68;;;10.50;98.20;;;9.04;100.00;101495.22;4991036;28;20146;-78
2022/04/29 02:38:35;;;;;;;8.00;5.78;;;9.30;97.60;;;8.92;100.00;101501.34;5007173;28;20046;-78
2022/04/29 02:41:20;;;;;;;7.07;6.05;;;9.20;98.00;;;8.76;100.00;101499.56;5007294;28;20054;-78
2022/04/29 02:43:47;;;;;;;6.47;5.88;;;9.40;97.80;;;8.66;100.00;101485.53;5007091;28;20066;-78
2022/04/29 02:46:19;;;;;;;6.63;5.78;;;9.20;97.60;;;8.66;100.00;101493.41;4991507;28;20511;-78
2022/04/29 02:48:49;;;;;;;6.90;6.10;;;9.20;97.90;;;8.58;100.00;101490.75;4990558;28;20050;-79
2022/04/29 02:51:17;;;;;;;7.80;6.32;;;10.00;98.20;;;8.62;100.00;101492.53;4975604;28;20157;-78
2022/04/29 02:53:51;;;;;;;6.07;5.47;;;9.10;98.10;;;8.67;100.00;101496.91;4974381;28;20578;-78
2022/04/29 02:56:19;;;;;;;6.50;5.13;;;9.00;98.30;;;8.70;100.00;101491.66;4974949;28;20486;-78
2022/04/29 02:59:09;;;;;;;6.32;5.72;;;9.00;98.20;;;8.63;100.00;101502.16;4977322;28;20561;-78
2022/04/29 03:01:36;;;;;;;9.05;6.30;;;9.00;98.50;;;8.59;100.00;101503.03;4991740;28;20076;-78
2022/04/29 03:04:04;;;;;;;6.38;5.78;;;9.00;98.60;;;8.55;100.00;101505.63;4991091;28;20411;-80
2022/04/29 03:06:34;;;;;;;7.20;6.28;;;8.90;98.50;;;8.54;100.00;101506.50;4994363;28;20042;-78
2022/04/29 03:09:11;;;;;;;7.07;6.38;;;8.90;98.60;;;8.44;100.00;101498.56;4988501;28;20057;-78
2022/04/29 03:11:40;;;;;;;6.82;6.13;;;8.90;98.60;;;8.42;100.00;101495.06;4974538;28;20408;-79
2022/04/29 03:14:07;;;;;;;6.45;5.80;;;9.10;98.70;;;8.29;100.00;101499.41;4973670;28;20048;-79
2022/04/29 03:16:34;;;;;;;7.65;5.50;;;8.80;98.60;;;8.27;100.00;101487.16;4989695;28;20042;-79
2022/04/29 03:19:01;;;;;;;6.85;6.05;;;8.80;98.40;;;8.28;100.00;101492.41;4956101;28;20051;-78
2022/04/29 03:21:33;;;;;;;6.80;6.20;;;8.70;98.30;;;8.30;100.00;101481.91;4973883;28;20125;-79
2022/04/29 03:24:03;;;;;;;7.28;5.80;;;8.70;98.40;;;8.32;100.00;101488.94;4988335;28;20042;-79
2022/04/29 03:26:35;;;;;;;10.27;6.57;;;8.70;98.70;;;8.32;100.00;101486.31;5005561;28;20135;-78
2022/04/29 03:29:03;;;;;;;7.82;6.22;;;8.70;98.80;;;8.20;100.00;101489.78;4972030;28;20046;-78
2022/04/29 03:31:30;;;;;;;6.22;5.47;;;8.70;98.90;;;8.14;100.00;101489.72;4972101;28;20043;-78
2022/04/29 03:34:29;;;;;;;6.00;5.40;;;8.70;98.80;;;7.95;100.00;101483.50;4988857;28;20066;-78
2022/04/29 03:36:56;;;;;;;6.60;5.90;;;9.40;98.70;;;7.85;100.00;101486.97;4972590;28;20164;-79
2022/04/29 03:39:23;;;;;;;6.55;5.90;;;8.50;98.50;;;7.90;100.00;101495.72;4971671;28;20093;-78
2022/04/29 03:41:51;;;;;;;6.70;5.78;;;8.50;98.60;;;7.88;100.00;101493.13;4973792;28;20051;-79
2022/04/29 03:44:21;;;;;;;6.35;5.75;;;8.40;98.90;;;7.89;100.00;101492.25;4976688;28;20153;-78
2022/04/29 03:46:53;;;;;;;5.40;4.90;;;8.40;98.70;;;7.95;100.00;101488.75;4977007;28;20141;-78
2022/04/29 03:49:39;;;;;;;7.22;5.15;;;8.40;98.40;;;7.87;100.00;101496.56;4994109;28;20058;-79
2022/04/29 03:52:28;;;;;;;5.80;5.20;;;8.40;98.70;;;7.81;100.00;101488.69;5007237;28;20058;-78
2022/04/29 03:54:56;;;;;;;5.60;5.10;;;10.20;99.30;;;7.82;100.00;101489.59;4988669;28;20431;-78
2022/04/29 03:57:23;;;;;;;6.97;5.75;;;8.30;98.70;;;7.70;100.00;101495.63;4979529;28;20058;-78
2022/04/29 03:59:50;;;;;;;6.00;5.50;;;9.10;99.00;;;7.70;100.00;101493.00;5010295;28;20046;-79
2022/04/29 04:02:17;;;;;;;5.97;5.43;;;8.20;98.70;;;7.87;100.00;101504.44;4974302;28;20046;-77
2022/04/29 04:04:49;;;;;;;6.22;5.63;;;9.60;99.20;;;7.61;100.00;101507.81;4984997;28;20046;-77
2022/04/29 04:07:16;;;;;;;6.78;5.25;;;9.40;99.40;;;7.66;100.00;101510.47;4981191;28;20137;-79
2022/04/29 04:09:57;;;;;;;7.75;5.75;;;8.20;99.00;;;7.60;100.00;101497.31;4997437;28;20042;-79
2022/04/29 04:12:25;;;;;;;7.07;5.95;;;8.10;98.80;;;7.50;100.00;101502.50;4993328;28;20046;-78
2022/04/29 04:15:11;;;;;;;5.90;5.30;;;8.00;98.60;;;7.43;100.00;101499.81;4990622;28;20578;-78
2022/04/29 04:17:44;;;;;;;5.88;5.20;;;8.00;98.80;;;7.57;100.00;101499.91;4993628;28;20070;-78
2022/04/29 04:20:14;;;;;;;6.10;5.40;;;8.00;99.20;;;7.55;100.00;101499.88;4977062;28;20458;-79
2022/04/29 04:23:04;;;;;;;7.45;4.78;;;8.00;99.10;;;7.62;100.00;101495.56;4979430;28;20089;-79
2022/04/29 04:25:32;;;;;;;7.35;5.80;;;8.90;99.20;;;7.75;100.00;101502.63;4973449;28;20053;-77
2022/04/29 04:28:01;;;;;;;6.22;5.50;;;8.80;99.00;;;7.79;100.00;101501.78;4975912;28;20411;-78
2022/04/29 04:30:44;;;;;;;5.75;5.20;;;8.10;99.00;;;7.86;100.00;101507.06;4977075;28;20137;-78
2022/04/29 04:33:12;;;;;;;6.55;5.95;;;8.20;99.00;;;7.77;100.00;101507.91;5005510;28;20153;-77
2022/04/29 04:35:39;;;;;;;5.95;5.35;;;9.30;99.10;;;7.85;100.00;101502.69;4988028;28;20154;-78
2022/04/29 04:38:06;;;;;;;6.50;5.90;;;8.20;98.70;;;7.86;100.00;101502.69;4986732;28;20109;-78
2022/04/29 04:40:49;;;;;;;7.22;5.63;;;8.90;98.90;;;7.88;100.00;101503.59;4985770;28;20101;-78
2022/04/29 04:43:18;;;;;;;6.22;5.65;;;8.90;98.80;;;7.87;100.00;101504.44;4991306;28;20447;-78
2022/04/29 04:45:46;;;;;;;6.35;5.60;;;8.20;98.70;;;7.86;100.00;101507.94;4970096;28;20058;-77
2022/04/29 04:48:36;;;;;;;5.63;5.00;;;8.30;98.80;;;7.95;100.00;101512.34;4984866;28;20590;-78
2022/04/29 04:51:38;;;;;;;7.00;6.35;;;8.30;98.70;;;7.97;100.00;101517.59;4977766;28;20054;-78
2022/04/29 04:54:08;;;;;;;;;;;8.40;98.90;;;8.02;100.00;101516.75;5002375;28;20047;-79
2022/04/29 04:56:38;;;;;;;6.45;5.78;;;8.30;98.70;;;8.00;100.00;101513.25;5005791;28;19928;-78
2022/04/29 04:59:06;;;;;;;7.28;6.47;;;8.30;98.70;;;8.05;100.00;101510.69;4971769;28;20137;-78
2022/04/29 05:01:34;;;;;;;6.45;5.85;;;10.00;99.40;;;8.18;100.00;101525.56;4957808;28;20051;-79
2022/04/29 05:04:40;;;;;;;6.10;5.50;;;8.40;98.90;;;8.33;100.00;101527.38;4987885;28;20042;-78
2022/04/29 05:07:30;;;;;;;7.05;5.63;;;8.70;99.00;;;8.38;100.00;101532.66;4972081;28;20503;-78
2022/04/29 05:09:57;;;;;;;6.60;5.43;;;8.60;98.70;;;8.49;100.00;101530.06;4975657;28;20443;-77
2022/04/29 05:12:24;;;;;;;5.82;5.05;;;9.00;99.10;;;8.66;100.00;101532.75;4975424;28;20050;-78
2022/04/29 05:15:17;;;;;;;10.32;6.00;;;8.80;99.00;;;8.77;100.00;101536.28;4988634;28;20054;-78
2022/04/29 05:17:45;;;;;;;5.70;5.10;;;8.90;99.10;;;8.88;100.00;101536.31;4991441;28;20042;-78
2022/04/29 05:20:25;;;;;;;;;;;10.00;99.20;;;9.00;100.00;101538.09;4990995;28;20046;-78
2022/04/29 05:22:52;;;;;;;8.30;5.90;;;9.40;99.00;;;9.08;100.00;101548.59;4991176;28;19926;-78
2022/04/29 05:25:20;;;;;;;7.82;6.15;;;9.60;99.00;;;9.13;100.00;101543.34;4988118;28;20054;-78
2022/04/29 05:28:07;;;;;;;7.47;6.10;;;9.20;98.90;;;9.19;100.00;101546.84;4991282;28;20077;-78
2022/04/29 05:31:10;;;;;;;13.35;7.25;;;9.30;98.70;;;9.29;100.00;101539.88;4958505;28;20579;-78
2022/04/29 05:33:56;;;;;;;10.13;6.43;;;9.80;98.80;;;9.40;100.00;101544.22;4988476;28;20062;-78
2022/04/29 05:36:49;;;;;;;9.13;6.18;;;10.60;99.00;;;9.49;100.00;101545.09;4980016;28;20145;-78
2022/04/29 05:42:27;;;;;;;8.68;6.18;;;9.70;98.60;;;9.69;100.00;101546.84;5005523;28;20142;-79
2022/04/29 05:44:55;;;;;;;7.10;5.88;;;9.90;98.60;;;9.79;100.00;101548.56;5004680;28;20049;-79
2022/04/29 05:47:22;;;;;;;9.27;6.28;;;9.90;98.40;;;9.90;100.00;101542.41;5012257;28;20078;-78
2022/04/29 05:49:50;;;;;;;8.07;6.72;;;9.90;98.30;;;10.00;100.00;101552.06;5012989;28;20046;-79
2022/04/29 05:52:21;;;;;;;6.40;5.72;;;10.60;98.60;;;10.06;100.00;101548.50;4979636;28;20100;-79
2022/04/29 05:54:49;;;;;;;7.57;6.25;;;10.10;98.40;;;10.20;100.00;101548.47;4978912;28;20412;-80
2022/04/29 05:57:23;;;;;;;8.07;6.05;;;10.20;98.20;;;10.28;100.00;101553.72;4979088;28;20047;-79
2022/04/29 05:59:50;;;;;;;6.80;5.65;;;10.30;98.00;;;10.33;100.00;101554.56;4978615;28;20065;-79
2022/04/29 06:02:29;;;;;;;7.25;5.57;;;12.00;98.50;;;10.44;100.00;101555.41;4979835;28;20065;-79
2022/04/29 06:05:08;;;;;;;6.65;5.90;;;11.20;98.40;;;10.55;100.00;101560.63;4980677;28;20034;-79
2022/04/29 06:07:36;;;;;;;6.30;5.80;;;10.60;98.10;;;10.60;100.00;101543.06;4994842;28;20066;-79
2022/04/29 06:10:05;;;;;;;9.05;5.55;;;10.60;97.90;;;10.69;100.00;101550.00;5011535;28;20050;-79
2022/04/29 06:12:41;;;;;;;;;;;10.70;97.70;;;10.78;100.00;101546.50;4995797;28;20749;-78
2022/04/29 06:15:19;;;;;;;5.82;5.22;;;10.80;97.60;;;10.85;100.00;101539.41;4995231;28;19989;-79
2022/04/29 06:18:05;;;;;;;7.00;5.28;;;10.90;97.60;;;10.90;100.00;101533.22;4995735;28;20065;-78
2022/04/29 06:20:41;;;;;;;5.80;5.20;;;10.90;97.70;;;11.06;100.00;101547.16;4994276;28;20046;-79
2022/04/29 06:23:25;;;;;;;8.68;5.70;;;11.10;97.60;;;11.16;100.00;101531.28;4982816;28;20050;-78
2022/04/29 06:25:54;;;;;;;6.25;5.22;;;11.20;97.60;;;11.20;100.00;101531.25;4980522;28;20877;-78
2022/04/29 06:28:23;;;;;;;6.15;5.55;;;11.30;97.30;;;11.26;100.00;101538.22;4994211;28;20100;-78
2022/04/29 06:30:51;;;;;;;6.40;5.25;;;11.30;97.00;;;11.30;100.00;101536.47;4977605;28;20050;-78
2022/04/29 06:33:38;;;;;;;7.82;5.13;;;11.40;96.90;;;11.36;100.00;101539.03;4994768;28;20345;-76
2022/04/29 06:36:09;;;;;;;5.60;5.10;;;11.40;96.80;;;11.38;100.00;101536.41;4979560;28;20173;-78
2022/04/29 06:38:38;;;;;;;6.43;5.40;;;11.40;97.10;;;11.36;100.00;101539.03;4995866;28;20081;-77
2022/04/29 06:41:05;;;;;;;5.18;4.68;;;11.50;96.80;;;11.40;100.00;101542.53;4996134;28;20043;-77
2022/04/29 06:43:47;;;;;;;6.93;5.75;;;11.50;96.90;;;11.38;100.00;101539.03;4997021;28;20057;-78
2022/04/29 06:46:33;;;;;;;7.50;5.28;;;12.10;96.90;;;11.39;100.00;101533.72;4997154;28;20174;-77
2022/04/29 06:49:16;;;;;;;6.15;5.45;;;11.50;96.60;;;11.45;100.00;101545.97;5001155;28;20094;-77
2022/04/29 06:52:02;;;;;;;5.75;5.13;;;11.50;96.60;;;11.46;100.00;101542.44;4999334;28;20056;-78
2022/04/29 06:54:36;;;;;;;6.53;5.22;;;11.50;97.10;;;11.47;100.00;101542.44;4993662;28;20069;-77
2022/04/29 06:57:10;;;;;;;6.90;5.05;;;11.60;97.10;;;11.51;100.00;101532.75;4989664;28;20045;-77
2022/04/29 06:59:38;;;;;;;6.88;6.18;;;11.60;96.90;;;11.58;100.00;101531.81;4997421;28;20077;-77
2022/04/29 07:02:06;;;;;;;7.80;5.72;;;12.00;97.20;;;11.67;100.00;101533.47;4976504;28;20043;-77
2022/04/29 07:04:34;;;;;;;6.75;5.88;;;11.70;97.10;;;11.70;100.00;101538.72;4976461;28;20050;-77
2022/04/29 07:07:03;;;;;;;7.03;6.18;;;11.70;97.20;;;11.84;100.00;101533.31;5008594;28;20097;-78
2022/04/29 07:09:36;;;;;;;6.88;5.70;;;11.80;97.20;;;11.98;100.00;101532.28;4993204;28;20048;-78
2022/04/29 07:12:48;;;;;;;7.93;5.82;;;11.90;97.30;;;12.20;100.00;101533.81;4993976;28;20522;-78
2022/04/29 07:15:17;;;;;;;7.72;6.93;;;12.10;97.40;;;12.30;100.00;101528.44;4977598;28;20058;-78
2022/04/29 07:17:46;;;;;;;7.10;6.38;;;12.20;96.90;;;12.42;100.00;101525.63;5010509;28;20057;-77
2022/04/29 07:20:16;;;;;;;7.32;6.53;;;12.30;96.70;;;12.55;100.00;101522.81;4994332;28;20047;-78
2022/04/29 07:22:43;;;;;;;7.72;6.60;;;12.40;96.80;;;12.67;100.00;101519.16;4990581;28;20050;-78
2022/04/29 07:25:13;;;;;;;7.90;7.18;;;13.30;97.10;;;12.84;100.00;101521.53;4962395;28;20061;-78
2022/04/29 07:27:41;;;;;;;7.32;6.57;;;12.60;96.80;;;12.93;100.00;101518.75;4978242;28;20051;-78
2022/04/29 07:30:11;;;;;;;8.50;7.40;;;12.80;96.50;;;13.03;100.00;101517.72;4992853;28;20567;-78
2022/04/29 07:32:48;;;;;;;8.20;6.97;;;12.90;96.20;;;13.16;100.00;101513.09;4981125;28;20153;-77
2022/04/29 07:44:03;;;;;;;9.48;7.13;;;13.40;95.30;;;13.66;100.00;101520.19;4980539;28;20070;-79
2022/04/29 07:46:36;;;;;;;8.65;7.65;;;13.60;95.20;;;13.81;100.00;101519.03;4976855;28;20081;-75
2022/04/29 07:49:06;;;;;;;8.68;6.70;;;13.70;95.00;;;14.01;100.00;101513.34;4989592;28;20588;-75
2022/04/29 07:51:34;;;;;;;9.82;6.53;;;13.80;95.10;;;14.22;100.00;101519.13;4971696;28;20455;-75
2022/04/29 07:54:01;;;;;;;8.20;7.10;;;14.00;95.00;;;14.37;100.00;101517.06;4975705;28;20762;-78
2022/04/29 07:56:28;;;;;;;7.88;7.07;;;14.10;94.90;;;14.50;97.80;101512.34;4987396;28;20687;-79
2022/04/29 07:59:00;;;;;;;9.68;7.50;;;14.30;94.60;;;14.60;97.22;101512.09;4991885;28;20054;-78
2022/04/29 08:01:27;;;;;;;7.93;5.82;;;14.50;94.40;;;14.75;95.76;101507.41;4971263;28;20055;-78
2022/04/29 08:03:55;;;;;;;9.02;6.55;;;14.60;94.10;;;14.91;96.01;101512.34;4971668;28;20047;-77
2022/04/29 08:06:23;;;;;;;7.07;6.32;;;14.70;94.20;;;15.06;93.53;101506.66;4971652;28;20038;-78
2022/04/29 08:08:51;;;;;;;8.05;6.38;;;14.80;94.00;;;15.25;89.68;101504.44;4954894;28;20043;-77
2022/04/29 08:11:19;;;;;;;9.05;7.60;;;15.00;93.70;;;15.36;86.96;101508.56;4959401;28;20682;-78
2022/04/29 08:14:06;;;;;;;9.13;6.47;;;15.10;93.30;;;15.45;87.83;101508.34;4990081;28;20053;-77
2022/04/29 08:17:21;;;;;;;8.95;6.50;;;15.20;93.50;;;15.61;89.26;101514.13;4996501;28;20145;-78
2022/04/29 08:19:50;;;;;;;8.43;6.10;;;15.40;93.40;;;15.70;88.60;101510.34;4975200;28;20050;-77
2022/04/29 08:22:31;;;;;;;7.78;5.70;;;15.50;93.30;;;15.87;86.48;101504.56;4977313;28;20061;-79
2022/04/29 08:25:00;;;;;;;8.45;6.88;;;15.70;93.20;;;16.01;83.07;101507.72;4976318;28;20129;-78
2022/04/29 08:27:28;;;;;;;9.52;5.82;;;15.80;92.90;;;16.04;78.22;101504.13;5007553;28;20042;-77
2022/04/29 08:29:59;;;;;;;5.95;5.15;;;15.90;92.30;;;16.15;78.89;101507.31;4991736;28;20153;-77
2022/04/29 08:32:27;;;;;;;8.85;5.50;;;15.90;92.20;;;16.15;76.50;101507.31;4992080;28;20042;-78
2022/04/29 08:34:54;;;;;;;13.05;5.80;;;16.00;91.90;;;16.26;77.57;101509.69;4974314;28;20042;-77
2022/04/29 08:37:21;;;;;;;7.28;5.15;;;16.10;91.90;;;16.29;76.49;101501.59;4974652;28;20050;-77
2022/04/29 08:39:48;;;;;;;6.43;4.85;;;16.10;91.80;;;16.36;73.85;101498.75;4990750;28;20708;-77
2022/04/29 08:42:18;;;;;;;8.50;5.00;;;16.30;91.50;;;16.35;73.64;101503.22;4958866;28;20590;-77
2022/04/29 08:44:50;;;;;;;5.65;4.97;;;16.20;91.40;;;16.36;72.15;101501.41;4975341;28;20050;-79
2022/04/29 08:47:41;;;;;;;6.78;5.57;;;16.30;91.00;;;16.41;70.89;101504.81;4972368;28;20113;-78
2022/04/29 08:50:20;;;;;;;6.68;5.40;;;16.30;90.80;;;16.47;69.22;101495.78;4988944;28;20057;-79
2022/04/29 08:52:51;;;;;;;6.30;5.32;;;16.40;90.60;;;16.55;70.29;101493.75;4990641;28;20089;-77
2022/04/29 09:00:51;;;;;;;6.90;5.88;;;16.50;90.20;;;16.77;63.35;101485.97;4992510;28;20034;-79
2022/04/29 09:03:22;;;;;;;6.22;5.63;;;16.60;88.90;;;16.96;68.21;101482.72;4992308;28;20050;-79
2022/04/29 09:05:50;;;;;;;8.82;5.68;;;16.70;90.20;;;17.13;63.70;101484.84;4988812;28;20042;-77
2022/04/29 09:08:21;;;;;;;9.05;5.45;;;16.90;89.40;;;17.22;61.59;101481.88;4974001;28;20523;-79
2022/04/29 09:10:57;;;;;;;12.05;6.10;;;17.00;88.40;;;17.37;60.89;101475.16;4988743;28;20058;-78
2022/04/29 09:13:31;;;;;;;7.50;5.68;;;17.10;87.90;;;17.55;60.40;101468.28;4990216;28;20126;-79
2022/04/29 09:16:07;;;;;;;7.00;6.30;;;17.20;87.40;;;17.64;56.68;101476.88;4982068;28;20117;-78
2022/04/29 09:18:53;;;;;;;6.90;5.15;;;17.40;85.30;;;17.86;56.35;101466.31;4954158;28;20057;-78
2022/04/29 09:21:24;;;;;;;9.98;6.80;;;17.50;85.20;;;18.00;55.25;101464.00;4969971;28;20046;-78
2022/04/29 09:23:56;;;;;;;8.57;5.50;;;17.70;84.30;;;18.23;55.20;101461.44;4969508;28;20050;-78
2022/04/29 09:26:42;;;;;;;8.18;6.35;;;17.90;84.30;;;18.46;53.24;101462.31;4971010;28;20069;-78
2022/04/29 09:29:30;;;;;;;6.60;5.05;;;18.10;82.80;;;18.64;52.53;101453.56;4979631;28;20166;-77
2022/04/29 09:32:17;;;;;;;;;;;18.30;81.60;;;18.77;52.35;101448.63;4987728;28;20042;-77
2022/04/29 09:34:54;;;;;;;8.80;6.70;;;18.40;81.90;;;18.87;48.20;101454.44;5001854;28;20004;-77
2022/04/29 09:37:23;;;;;;;7.07;6.38;;;18.60;77.10;;;18.98;48.09;101444.19;4986439;28;20080;-76
2022/04/29 09:40:00;;;;;;;7.38;6.30;;;18.80;76.50;;;19.10;50.03;101448.16;4972284;28;20054;-77
2022/04/29 09:42:39;;;;;;;7.28;6.40;;;18.80;78.00;;;19.17;46.60;101445.22;4991459;28;20546;-77
2022/04/29 09:45:18;;;;;;;7.93;6.15;;;18.90;74.30;;;19.24;46.48;101442.22;4974451;28;20133;-76
2022/04/29 09:47:45;;;;;;;8.43;6.65;;;19.00;73.60;;;19.29;46.10;101449.19;4991460;28;20047;-77
2022/04/29 09:50:13;;;;;;;12.43;7.65;;;19.10;72.70;;;19.36;44.73;101440.84;4973533;28;20125;-76
2022/04/29 09:52:43;;;;;;;10.15;7.80;;;19.10;71.00;;;19.40;45.06;101431.75;4990514;28;20565;-77
2022/04/29 09:55:19;;;;;;;7.03;6.30;;;19.20;70.10;;;19.46;44.23;101433.28;4992647;28;20121;-76
2022/04/29 09:57:47;;;;;;;7.45;6.20;;;19.30;69.00;;;19.59;44.19;101425.59;4994167;28;20487;-77
2022/04/29 10:00:15;;;;;;;8.35;6.00;;;19.30;68.90;;;19.60;43.79;101421.13;5010061;28;20050;-76
2022/04/29 10:02:43;;;;;;;9.20;5.55;;;19.40;67.70;;;19.54;43.24;101422.28;4989658;28;20045;-76
2022/04/29 10:05:10;;;;;;;7.18;5.68;;;19.40;66.20;;;19.52;44.46;101419.66;4974453;28;20047;-77
2022/04/29 10:07:47;;;;;;;7.25;5.28;;;19.50;67.30;;;19.64;45.64;101415.56;4973836;28;20070;-77
2022/04/29 10:10:15;;;;;;;8.40;6.07;;;19.50;68.80;;;19.84;45.59;101419.13;4990743;28;20463;-77
2022/04/29 10:12:47;;;;;;;7.15;6.20;;;19.50;69.10;;;19.94;44.80;101415.09;4989910;28;20492;-79
2022/04/29 10:15:26;;;;;;;7.72;6.53;;;19.60;68.40;;;19.90;43.19;101404.59;4991339;28;20039;-77
2022/04/29 10:21:36;;;;;;;5.55;4.57;;;19.80;65.70;;;20.21;44.02;101397.84;4974050;28;20054;-79
2022/04/29 10:24:04;;;;;;;8.70;5.95;;;20.00;66.70;;;20.32;39.25;101400.84;4974215;28;20137;-77
2022/04/29 10:26:32;;;;;;;7.70;5.75;;;20.00;60.00;;;20.51;39.74;101400.81;4973494;28;20042;-76
2022/04/29 10:29:00;;;;;;;8.45;5.68;;;20.20;60.50;;;20.78;39.04;101391.50;4980919;28;20059;-77
2022/04/29 10:31:29;;;;;;;8.05;6.72;;;20.40;59.60;;;20.71;38.38;101400.78;4989396;28;20515;-76
2022/04/29 10:34:31;;;;;;;8.18;5.97;;;20.50;58.20;;;20.77;38.54;101395.09;4972736;28;20053;-76
2022/04/29 10:37:13;;;;;;;8.35;5.88;;;20.60;57.50;;;20.80;37.39;101393.19;4982065;28;20455;-77
2022/04/29 10:40:02;;;;;;;5.95;5.35;;;20.60;56.40;;;20.68;38.51;101391.97;4987249;28;20494;-78
2022/04/29 10:42:29;;;;;;;7.13;5.15;;;20.60;57.20;;;20.68;37.65;101386.63;4989388;28;20048;-77
2022/04/29 10:45:01;;;;;;;6.70;5.13;;;20.60;56.30;;;20.63;37.63;101385.13;4987922;28;20042;-77
2022/04/29 10:47:40;;;;;;;6.22;5.07;;;20.70;55.70;;;20.83;37.52;101385.00;4990117;28;20044;-78
2022/04/29 10:50:31;;;;;;;8.32;4.57;;;20.60;55.50;;;20.96;36.92;101384.38;4960739;28;20061;-77
2022/04/29 10:53:23;;;;;;;5.80;4.32;;;20.70;55.00;;;20.93;36.68;101380.03;4989948;28;20357;-78
2022/04/29 10:56:28;;;;;;;6.32;4.38;;;20.70;54.60;;;21.02;36.76;101384.03;4974135;28;20050;-77
2022/04/29 10:59:12;;;;;;;6.97;4.60;;;20.70;54.40;;;21.12;35.97;101379.06;4988754;28;20046;-77